sensor_id;sensor_type;location;lat;lon;timestamp;temperature;humidity
2571;DHT22;1295;51.130;6.732;2023-03-12T00:01:12;5.70;99.90
2571;DHT22;1295;51.130;6.732;2023-03-12T00:03:38;5.50;99.90
2571;DHT22;1295;51.130;6.732;2023-03-12T00:06:04;5.50;99.90
2571;DHT22;1295;51.130;6.732;2023-03-12T00:08:31;5.70;99.90
2571;DHT22;1295;51.130;6.732;2023-03-12T00:10:56;5.70;99.90
2571;DHT22;1295;51.130;6.732;2023-03-12T00:13:22;5.70;99.90
2571;DHT22;1295;51.130;6.732;2023-03-12T00:15:47;5.70;99.90
2571;DHT22;1295;51.130;6.732;2023-03-12T00:18:13;5.60;99.90
2571;DHT22;1295;51.130;6.732;2023-03-12T00:20:39;5.70;99.90
2571;DHT22;1295;51.130;6.732;2023-03-12T00:23:04;5.70;99.90
2571;DHT22;1295;51.130;6.732;2023-03-12T00:25:30;5.60;99.90
2571;DHT22;1295;51.130;6.732;2023-03-12T00:27:56;5.60;99.90
2571;DHT22;1295;51.130;6.732;2023-03-12T00:30:21;5.50;99.90
2571;DHT22;1295;51.130;6.732;2023-03-12T00:32:47;5.60;99.90
2571;DHT22;1295;51.130;6.732;2023-03-12T00:35:13;5.60;99.90
2571;DHT22;1295;51.130;6.732;2023-03-12T00:37:38;5.70;99.90
2571;DHT22;1295;51.130;6.732;2023-03-12T00:40:05;5.60;99.90
2571;DHT22;1295;51.130;6.732;2023-03-12T00:42:32;5.60;99.90
2571;DHT22;1295;51.130;6.732;2023-03-12T00:44:57;5.60;99.90
2571;DHT22;1295;51.130;6.732;2023-03-12T00:47:23;5.60;99.90
2571;DHT22;1295;51.130;6.732;2023-03-12T00:49:49;5.60;99.90
2571;DHT22;1295;51.130;6.732;2023-03-12T00:52:14;5.60;99.90
2571;DHT22;1295;51.130;6.732;2023-03-12T00:54:40;5.60;99.90
2571;DHT22;1295;51.130;6.732;2023-03-12T00:57:06;5.60;99.90
2571;DHT22;1295;51.130;6.732;2023-03-12T00:59:31;5.40;99.90
2571;DHT22;1295;51.130;6.732;2023-03-12T01:01:57;5.00;99.90
2571;DHT22;1295;51.130;6.732;2023-03-12T01:04:22;5.30;99.90
2571;DHT22;1295;51.130;6.732;2023-03-12T01:06:48;5.40;99.90
2571;DHT22;1295;51.130;6.732;2023-03-12T01:09:14;5.40;99.90
2571;DHT22;1295;51.130;6.732;2023-03-12T01:11:39;5.20;99.90
2571;DHT22;1295;51.130;6.732;2023-03-12T01:14:06;5.30;99.90
2571;DHT22;1295;51.130;6.732;2023-03-12T01:16:31;5.40;99.90
2571;DHT22;1295;51.130;6.732;2023-03-12T01:18:57;5.20;99.90
2571;DHT22;1295;51.130;6.732;2023-03-12T01:21:22;5.40;99.90
2571;DHT22;1295;51.130;6.732;2023-03-12T01:23:47;5.40;99.90
2571;DHT22;1295;51.130;6.732;2023-03-12T01:26:14;5.40;99.90
2571;DHT22;1295;51.130;6.732;2023-03-12T01:28:39;5.40;99.90
2571;DHT22;1295;51.130;6.732;2023-03-12T01:31:08;5.40;99.90
2571;DHT22;1295;51.130;6.732;2023-03-12T01:33:33;5.20;99.90
2571;DHT22;1295;51.130;6.732;2023-03-12T01:35:58;5.30;99.90
2571;DHT22;1295;51.130;6.732;2023-03-12T01:38:24;5.30;99.90
2571;DHT22;1295;51.130;6.732;2023-03-12T01:40:49;5.40;99.90
2571;DHT22;1295;51.130;6.732;2023-03-12T01:43:27;5.20;99.90
2571;DHT22;1295;51.130;6.732;2023-03-12T01:46:15;5.30;99.90
2571;DHT22;1295;51.130;6.732;2023-03-12T01:48:38;5.30;99.90
2571;DHT22;1295;51.130;6.732;2023-03-12T01:51:04;5.40;99.90
2571;DHT22;1295;51.130;6.732;2023-03-12T01:53:29;5.40;99.90
2571;DHT22;1295;51.130;6.732;2023-03-12T01:55:55;5.40;99.90
2571;DHT22;1295;51.130;6.732;2023-03-12T01:58:20;5.40;99.90
2571;DHT22;1295;51.130;6.732;2023-03-12T02:00:46;5.40;99.90
2571;DHT22;1295;51.130;6.732;2023-03-12T02:03:12;5.30;99.90
2571;DHT22;1295;51.130;6.732;2023-03-12T02:05:45;5.30;99.90
2571;DHT22;1295;51.130;6.732;2023-03-12T02:08:13;5.20;99.90
2571;DHT22;1295;51.130;6.732;2023-03-12T02:10:44;5.20;99.90
2571;DHT22;1295;51.130;6.732;2023-03-12T02:13:09;5.20;99.90
2571;DHT22;1295;51.130;6.732;2023-03-12T02:15:35;5.20;99.90
2571;DHT22;1295;51.130;6.732;2023-03-12T02:18:01;5.20;99.90
2571;DHT22;1295;51.130;6.732;2023-03-12T02:20:31;5.30;99.90
2571;DHT22;1295;51.130;6.732;2023-03-12T02:22:59;5.20;99.90
2571;DHT22;1295;51.130;6.732;2023-03-12T02:25:36;5.20;99.90
2571;DHT22;1295;51.130;6.732;2023-03-12T02:28:02;5.20;99.90
2571;DHT22;1295;51.130;6.732;2023-03-12T02:30:27;5.30;99.90
2571;DHT22;1295;51.130;6.732;2023-03-12T02:32:52;4.80;99.90
2571;DHT22;1295;51.130;6.732;2023-03-12T02:35:18;4.90;99.90
2571;DHT22;1295;51.130;6.732;2023-03-12T02:37:47;5.00;99.90
2571;DHT22;1295;51.130;6.732;2023-03-12T02:40:14;5.00;99.90
2571;DHT22;1295;51.130;6.732;2023-03-12T02:42:38;5.10;99.90
2571;DHT22;1295;51.130;6.732;2023-03-12T02:45:04;5.10;99.90
2571;DHT22;1295;51.130;6.732;2023-03-12T02:47:31;5.10;99.90
2571;DHT22;1295;51.130;6.732;2023-03-12T02:49:56;5.20;99.90
2571;DHT22;1295;51.130;6.732;2023-03-12T02:52:22;5.20;99.90
2571;DHT22;1295;51.130;6.732;2023-03-12T02:54:47;5.00;99.90
2571;DHT22;1295;51.130;6.732;2023-03-12T02:57:13;5.10;99.90
2571;DHT22;1295;51.130;6.732;2023-03-12T02:59:39;5.20;99.90
2571;DHT22;1295;51.130;6.732;2023-03-12T03:02:04;5.10;99.90
2571;DHT22;1295;51.130;6.732;2023-03-12T03:04:30;5.10;99.90
2571;DHT22;1295;51.130;6.732;2023-03-12T03:06:56;5.10;99.90
2571;DHT22;1295;51.130;6.732;2023-03-12T03:09:21;4.80;99.90
2571;DHT22;1295;51.130;6.732;2023-03-12T03:11:48;5.00;99.90
2571;DHT22;1295;51.130;6.732;2023-03-12T03:14:18;5.00;99.90
2571;DHT22;1295;51.130;6.732;2023-03-12T03:16:44;5.00;99.90
2571;DHT22;1295;51.130;6.732;2023-03-12T03:19:10;4.90;99.90
2571;DHT22;1295;51.130;6.732;2023-03-12T03:21:35;4.90;99.90
2571;DHT22;1295;51.130;6.732;2023-03-12T03:24:01;5.00;99.90
2571;DHT22;1295;51.130;6.732;2023-03-12T03:26:27;4.80;99.90
2571;DHT22;1295;51.130;6.732;2023-03-12T03:28:53;4.80;99.90
2571;DHT22;1295;51.130;6.732;2023-03-12T03:31:19;4.80;99.90
2571;DHT22;1295;51.130;6.732;2023-03-12T03:33:45;4.80;99.90
2571;DHT22;1295;51.130;6.732;2023-03-12T03:36:10;4.50;99.90
2571;DHT22;1295;51.130;6.732;2023-03-12T03:38:36;4.70;99.90
2571;DHT22;1295;51.130;6.732;2023-03-12T03:41:07;4.90;99.90
2571;DHT22;1295;51.130;6.732;2023-03-12T03:43:33;4.80;99.90
2571;DHT22;1295;51.130;6.732;2023-03-12T03:45:59;4.80;99.90
2571;DHT22;1295;51.130;6.732;2023-03-12T03:48:24;4.80;99.90
2571;DHT22;1295;51.130;6.732;2023-03-12T03:50:50;5.00;99.90
2571;DHT22;1295;51.130;6.732;2023-03-12T03:53:15;4.90;99.90
2571;DHT22;1295;51.130;6.732;2023-03-12T03:55:41;5.00;99.90
2571;DHT22;1295;51.130;6.732;2023-03-12T03:58:07;5.00;99.90
2571;DHT22;1295;51.130;6.732;2023-03-12T04:00:33;5.00;99.90
2571;DHT22;1295;51.130;6.732;2023-03-12T04:02:59;5.00;99.90
2571;DHT22;1295;51.130;6.732;2023-03-12T04:05:24;5.00;99.90
2571;DHT22;1295;51.130;6.732;2023-03-12T04:07:57;4.80;99.90
2571;DHT22;1295;51.130;6.732;2023-03-12T04:10:23;4.90;99.90
2571;DHT22;1295;51.130;6.732;2023-03-12T04:12:49;5.00;99.90
2571;DHT22;1295;51.130;6.732;2023-03-12T04:15:14;4.90;99.90
2571;DHT22;1295;51.130;6.732;2023-03-12T04:17:40;4.80;99.90
2571;DHT22;1295;51.130;6.732;2023-03-12T04:20:06;4.80;99.90
2571;DHT22;1295;51.130;6.732;2023-03-12T04:22:32;4.80;99.90
2571;DHT22;1295;51.130;6.732;2023-03-12T04:24:58;5.00;99.90
2571;DHT22;1295;51.130;6.732;2023-03-12T04:27:23;4.80;99.90
2571;DHT22;1295;51.130;6.732;2023-03-12T04:29:50;4.70;99.90
2571;DHT22;1295;51.130;6.732;2023-03-12T04:32:15;4.70;99.90
2571;DHT22;1295;51.130;6.732;2023-03-12T04:34:41;4.80;99.90
2571;DHT22;1295;51.130;6.732;2023-03-12T04:37:07;4.90;99.90
2571;DHT22;1295;51.130;6.732;2023-03-12T04:39:32;4.80;99.90
2571;DHT22;1295;51.130;6.732;2023-03-12T04:41:58;4.60;99.90
2571;DHT22;1295;51.130;6.732;2023-03-12T04:44:24;4.80;99.90
2571;DHT22;1295;51.130;6.732;2023-03-12T04:46:50;4.70;99.90
2571;DHT22;1295;51.130;6.732;2023-03-12T04:49:16;4.70;99.90
2571;DHT22;1295;51.130;6.732;2023-03-12T04:51:41;4.80;99.90
2571;DHT22;1295;51.130;6.732;2023-03-12T04:54:07;4.40;99.90
2571;DHT22;1295;51.130;6.732;2023-03-12T04:56:32;4.40;99.90
2571;DHT22;1295;51.130;6.732;2023-03-12T04:58:58;4.40;99.90
2571;DHT22;1295;51.130;6.732;2023-03-12T05:01:27;4.70;99.90
2571;DHT22;1295;51.130;6.732;2023-03-12T05:03:52;4.70;99.90
2571;DHT22;1295;51.130;6.732;2023-03-12T05:06:17;4.80;99.90
2571;DHT22;1295;51.130;6.732;2023-03-12T05:08:48;4.80;99.90
2571;DHT22;1295;51.130;6.732;2023-03-12T05:11:14;4.70;99.90
2571;DHT22;1295;51.130;6.732;2023-03-12T05:13:39;4.80;99.90
2571;DHT22;1295;51.130;6.732;2023-03-12T05:16:06;4.80;99.90
2571;DHT22;1295;51.130;6.732;2023-03-12T05:18:31;4.80;99.90
2571;DHT22;1295;51.130;6.732;2023-03-12T05:20:59;4.60;99.90
2571;DHT22;1295;51.130;6.732;2023-03-12T05:23:24;4.60;99.90
2571;DHT22;1295;51.130;6.732;2023-03-12T05:25:50;4.50;99.90
2571;DHT22;1295;51.130;6.732;2023-03-12T05:28:16;4.70;99.90
2571;DHT22;1295;51.130;6.732;2023-03-12T05:30:41;4.50;99.90
2571;DHT22;1295;51.130;6.732;2023-03-12T05:33:07;4.40;99.90
2571;DHT22;1295;51.130;6.732;2023-03-12T05:35:32;4.30;99.90
2571;DHT22;1295;51.130;6.732;2023-03-12T05:37:58;4.60;99.90
2571;DHT22;1295;51.130;6.732;2023-03-12T05:40:24;4.70;99.90
2571;DHT22;1295;51.130;6.732;2023-03-12T05:42:49;4.60;99.90
2571;DHT22;1295;51.130;6.732;2023-03-12T05:45:15;4.50;99.90
2571;DHT22;1295;51.130;6.732;2023-03-12T05:47:41;4.20;99.90
2571;DHT22;1295;51.130;6.732;2023-03-12T05:50:07;4.40;99.90
2571;DHT22;1295;51.130;6.732;2023-03-12T05:52:33;4.50;99.90
2571;DHT22;1295;51.130;6.732;2023-03-12T05:54:59;4.40;99.90
2571;DHT22;1295;51.130;6.732;2023-03-12T05:57:24;4.40;99.90
2571;DHT22;1295;51.130;6.732;2023-03-12T05:59:50;4.00;99.90
2571;DHT22;1295;51.130;6.732;2023-03-12T06:02:16;4.50;99.90
2571;DHT22;1295;51.130;6.732;2023-03-12T06:04:41;3.90;99.90
2571;DHT22;1295;51.130;6.732;2023-03-12T06:07:07;3.80;99.90
2571;DHT22;1295;51.130;6.732;2023-03-12T06:09:33;3.80;99.90
2571;DHT22;1295;51.130;6.732;2023-03-12T06:11:59;4.60;99.90
2571;DHT22;1295;51.130;6.732;2023-03-12T06:14:25;4.60;99.90
2571;DHT22;1295;51.130;6.732;2023-03-12T06:16:50;4.60;99.90
2571;DHT22;1295;51.130;6.732;2023-03-12T06:19:16;4.50;99.90
2571;DHT22;1295;51.130;6.732;2023-03-12T06:21:41;4.60;99.90
2571;DHT22;1295;51.130;6.732;2023-03-12T06:24:07;4.60;99.90
2571;DHT22;1295;51.130;6.732;2023-03-12T06:26:33;4.60;99.90
2571;DHT22;1295;51.130;6.732;2023-03-12T06:28:58;4.40;99.90
2571;DHT22;1295;51.130;6.732;2023-03-12T06:31:24;4.40;99.90
2571;DHT22;1295;51.130;6.732;2023-03-12T06:33:50;4.20;99.90
2571;DHT22;1295;51.130;6.732;2023-03-12T06:36:16;4.20;99.90
2571;DHT22;1295;51.130;6.732;2023-03-12T06:38:42;4.20;99.90
2571;DHT22;1295;51.130;6.732;2023-03-12T06:41:08;4.40;99.90
2571;DHT22;1295;51.130;6.732;2023-03-12T06:43:33;4.50;99.90
2571;DHT22;1295;51.130;6.732;2023-03-12T06:45:58;4.50;99.90
2571;DHT22;1295;51.130;6.732;2023-03-12T06:48:25;4.30;99.90
2571;DHT22;1295;51.130;6.732;2023-03-12T06:50:50;4.30;99.90
2571;DHT22;1295;51.130;6.732;2023-03-12T06:53:15;4.40;99.90
2571;DHT22;1295;51.130;6.732;2023-03-12T06:55:42;4.50;99.90
2571;DHT22;1295;51.130;6.732;2023-03-12T06:58:07;4.40;99.90
2571;DHT22;1295;51.130;6.732;2023-03-12T07:00:33;4.40;99.90
2571;DHT22;1295;51.130;6.732;2023-03-12T07:02:58;4.30;99.90
2571;DHT22;1295;51.130;6.732;2023-03-12T07:05:24;4.00;99.90
2571;DHT22;1295;51.130;6.732;2023-03-12T07:07:50;4.30;99.90
2571;DHT22;1295;51.130;6.732;2023-03-12T07:10:16;4.40;99.90
2571;DHT22;1295;51.130;6.732;2023-03-12T07:12:41;4.20;99.90
2571;DHT22;1295;51.130;6.732;2023-03-12T07:15:07;4.40;99.90
2571;DHT22;1295;51.130;6.732;2023-03-12T07:17:34;4.40;99.90
2571;DHT22;1295;51.130;6.732;2023-03-12T07:20:00;4.40;99.90
2571;DHT22;1295;51.130;6.732;2023-03-12T07:22:26;4.40;99.90
2571;DHT22;1295;51.130;6.732;2023-03-12T07:24:51;4.30;99.90
2571;DHT22;1295;51.130;6.732;2023-03-12T07:27:17;4.40;99.90
2571;DHT22;1295;51.130;6.732;2023-03-12T07:29:43;4.30;99.90
2571;DHT22;1295;51.130;6.732;2023-03-12T07:32:17;4.30;99.90
2571;DHT22;1295;51.130;6.732;2023-03-12T07:34:43;4.50;99.90
2571;DHT22;1295;51.130;6.732;2023-03-12T07:37:10;4.30;99.90
2571;DHT22;1295;51.130;6.732;2023-03-12T07:39:35;4.30;99.90
2571;DHT22;1295;51.130;6.732;2023-03-12T07:42:01;4.30;99.90
2571;DHT22;1295;51.130;6.732;2023-03-12T07:44:26;4.40;99.90
2571;DHT22;1295;51.130;6.732;2023-03-12T07:46:52;4.40;99.90
2571;DHT22;1295;51.130;6.732;2023-03-12T07:49:18;4.20;99.90
2571;DHT22;1295;51.130;6.732;2023-03-12T07:51:44;4.20;99.90
2571;DHT22;1295;51.130;6.732;2023-03-12T07:54:10;4.50;99.90
2571;DHT22;1295;51.130;6.732;2023-03-12T07:56:35;4.40;99.90
2571;DHT22;1295;51.130;6.732;2023-03-12T07:59:01;4.50;99.90
2571;DHT22;1295;51.130;6.732;2023-03-12T08:01:27;4.30;99.90
2571;DHT22;1295;51.130;6.732;2023-03-12T08:03:53;4.20;99.90
2571;DHT22;1295;51.130;6.732;2023-03-12T08:06:19;4.20;99.90
2571;DHT22;1295;51.130;6.732;2023-03-12T08:08:44;4.20;99.90
2571;DHT22;1295;51.130;6.732;2023-03-12T08:11:10;4.20;99.90
2571;DHT22;1295;51.130;6.732;2023-03-12T08:13:36;4.40;99.90
2571;DHT22;1295;51.130;6.732;2023-03-12T08:16:03;4.40;99.90
2571;DHT22;1295;51.130;6.732;2023-03-12T08:18:29;4.50;99.90
2571;DHT22;1295;51.130;6.732;2023-03-12T08:20:54;4.50;99.90
2571;DHT22;1295;51.130;6.732;2023-03-12T08:23:20;4.50;99.90
2571;DHT22;1295;51.130;6.732;2023-03-12T08:25:46;4.30;99.90
2571;DHT22;1295;51.130;6.732;2023-03-12T08:28:11;4.50;99.90
2571;DHT22;1295;51.130;6.732;2023-03-12T08:30:37;4.60;99.90
2571;DHT22;1295;51.130;6.732;2023-03-12T08:33:02;4.50;99.90
2571;DHT22;1295;51.130;6.732;2023-03-12T08:35:28;4.50;99.90
2571;DHT22;1295;51.130;6.732;2023-03-12T08:37:54;4.40;99.90
2571;DHT22;1295;51.130;6.732;2023-03-12T08:40:19;4.20;99.90
2571;DHT22;1295;51.130;6.732;2023-03-12T08:42:45;4.50;99.90
2571;DHT22;1295;51.130;6.732;2023-03-12T08:45:11;4.40;99.90
2571;DHT22;1295;51.130;6.732;2023-03-12T08:47:36;4.50;99.90
2571;DHT22;1295;51.130;6.732;2023-03-12T08:50:02;4.50;99.90
2571;DHT22;1295;51.130;6.732;2023-03-12T08:52:28;4.50;99.90
2571;DHT22;1295;51.130;6.732;2023-03-12T08:54:53;4.50;99.90
2571;DHT22;1295;51.130;6.732;2023-03-12T08:57:20;4.50;99.90
2571;DHT22;1295;51.130;6.732;2023-03-12T08:59:46;4.50;99.90
2571;DHT22;1295;51.130;6.732;2023-03-12T09:02:11;4.50;99.90
2571;DHT22;1295;51.130;6.732;2023-03-12T09:04:38;4.20;99.90
2571;DHT22;1295;51.130;6.732;2023-03-12T09:07:03;4.20;99.90
2571;DHT22;1295;51.130;6.732;2023-03-12T09:09:29;4.40;99.90
2571;DHT22;1295;51.130;6.732;2023-03-12T09:11:55;4.50;99.90
2571;DHT22;1295;51.130;6.732;2023-03-12T09:14:21;4.50;99.90
2571;DHT22;1295;51.130;6.732;2023-03-12T09:16:47;4.50;99.90
2571;DHT22;1295;51.130;6.732;2023-03-12T09:19:12;4.50;99.90
2571;DHT22;1295;51.130;6.732;2023-03-12T09:21:38;4.50;99.90
2571;DHT22;1295;51.130;6.732;2023-03-12T09:24:04;4.30;99.90
2571;DHT22;1295;51.130;6.732;2023-03-12T09:26:30;4.50;99.90
2571;DHT22;1295;51.130;6.732;2023-03-12T09:28:55;4.60;99.90
2571;DHT22;1295;51.130;6.732;2023-03-12T09:31:21;4.60;99.90
2571;DHT22;1295;51.130;6.732;2023-03-12T09:33:46;4.60;99.90
2571;DHT22;1295;51.130;6.732;2023-03-12T09:36:12;4.50;99.90
2571;DHT22;1295;51.130;6.732;2023-03-12T09:38:38;4.60;99.90
2571;DHT22;1295;51.130;6.732;2023-03-12T09:41:04;4.60;99.90
2571;DHT22;1295;51.130;6.732;2023-03-12T09:43:38;4.50;99.90
2571;DHT22;1295;51.130;6.732;2023-03-12T09:46:03;4.60;99.90
2571;DHT22;1295;51.130;6.732;2023-03-12T09:48:33;4.50;99.90
2571;DHT22;1295;51.130;6.732;2023-03-12T09:50:57;4.40;99.90
2571;DHT22;1295;51.130;6.732;2023-03-12T09:53:28;4.30;99.90
2571;DHT22;1295;51.130;6.732;2023-03-12T09:55:53;4.30;99.90
2571;DHT22;1295;51.130;6.732;2023-03-12T09:58:21;4.40;99.90
2571;DHT22;1295;51.130;6.732;2023-03-12T10:00:44;4.50;99.90
2571;DHT22;1295;51.130;6.732;2023-03-12T10:03:55;4.50;99.90
2571;DHT22;1295;51.130;6.732;2023-03-12T10:06:08;4.60;99.90
2571;DHT22;1295;51.130;6.732;2023-03-12T10:14:07;4.60;99.90
2571;DHT22;1295;51.130;6.732;2023-03-12T10:16:41;4.60;99.90
2571;DHT22;1295;51.130;6.732;2023-03-12T10:19:13;4.50;99.90
2571;DHT22;1295;51.130;6.732;2023-03-12T10:21:40;4.60;99.90
2571;DHT22;1295;51.130;6.732;2023-03-12T10:24:29;4.70;99.90
2571;DHT22;1295;51.130;6.732;2023-03-12T10:26:54;4.70;99.90
2571;DHT22;1295;51.130;6.732;2023-03-12T10:29:20;4.60;99.90
2571;DHT22;1295;51.130;6.732;2023-03-12T10:31:53;4.60;99.90
2571;DHT22;1295;51.130;6.732;2023-03-12T10:34:33;4.70;99.90
2571;DHT22;1295;51.130;6.732;2023-03-12T10:36:58;4.60;99.90
2571;DHT22;1295;51.130;6.732;2023-03-12T10:39:23;4.60;99.90
2571;DHT22;1295;51.130;6.732;2023-03-12T10:41:49;4.60;99.90
2571;DHT22;1295;51.130;6.732;2023-03-12T10:44:17;4.60;99.90
2571;DHT22;1295;51.130;6.732;2023-03-12T10:46:51;4.70;99.90
2571;DHT22;1295;51.130;6.732;2023-03-12T10:49:25;4.70;99.90
2571;DHT22;1295;51.130;6.732;2023-03-12T10:51:57;4.70;99.90
2571;DHT22;1295;51.130;6.732;2023-03-12T10:54:25;4.70;99.90
2571;DHT22;1295;51.130;6.732;2023-03-12T10:56:48;4.70;99.90
2571;DHT22;1295;51.130;6.732;2023-03-12T10:59:19;4.70;99.90
2571;DHT22;1295;51.130;6.732;2023-03-12T11:01:42;4.80;99.90
2571;DHT22;1295;51.130;6.732;2023-03-12T11:04:09;4.80;99.90
2571;DHT22;1295;51.130;6.732;2023-03-12T11:06:33;4.80;99.90
2571;DHT22;1295;51.130;6.732;2023-03-12T11:09:13;4.80;99.90
2571;DHT22;1295;51.130;6.732;2023-03-12T11:11:33;4.80;99.90
2571;DHT22;1295;51.130;6.732;2023-03-12T11:14:05;4.80;99.90
2571;DHT22;1295;51.130;6.732;2023-03-12T11:16:29;4.80;99.90
2571;DHT22;1295;51.130;6.732;2023-03-12T11:18:59;4.90;99.90
2571;DHT22;1295;51.130;6.732;2023-03-12T11:21:24;4.90;99.90
2571;DHT22;1295;51.130;6.732;2023-03-12T11:24:10;4.90;99.90
2571;DHT22;1295;51.130;6.732;2023-03-12T11:26:42;4.80;99.90
2571;DHT22;1295;51.130;6.732;2023-03-12T11:29:05;5.20;99.90
2571;DHT22;1295;51.130;6.732;2023-03-12T11:31:32;4.80;99.90
2571;DHT22;1295;51.130;6.732;2023-03-12T11:33:58;4.90;99.90
2571;DHT22;1295;51.130;6.732;2023-03-12T11:36:30;4.90;99.90
2571;DHT22;1295;51.130;6.732;2023-03-12T11:39:00;5.60;99.90
2571;DHT22;1295;51.130;6.732;2023-03-12T11:41:37;5.60;99.90
2571;DHT22;1295;51.130;6.732;2023-03-12T11:44:18;5.50;99.90
2571;DHT22;1295;51.130;6.732;2023-03-12T11:46:53;5.90;99.90
2571;DHT22;1295;51.130;6.732;2023-03-12T11:49:20;5.90;99.90
2571;DHT22;1295;51.130;6.732;2023-03-12T11:52:01;5.70;99.90
2571;DHT22;1295;51.130;6.732;2023-03-12T12:00:13;6.00;99.90
2571;DHT22;1295;51.130;6.732;2023-03-12T12:03:04;5.60;99.90
2571;DHT22;1295;51.130;6.732;2023-03-12T12:05:49;5.60;99.90
2571;DHT22;1295;51.130;6.732;2023-03-12T12:08:31;5.60;99.90
2571;DHT22;1295;51.130;6.732;2023-03-12T12:11:15;6.20;99.90
2571;DHT22;1295;51.130;6.732;2023-03-12T12:13:47;6.00;99.90
2571;DHT22;1295;51.130;6.732;2023-03-12T12:16:31;6.40;99.90
2571;DHT22;1295;51.130;6.732;2023-03-12T12:19:00;6.30;99.90
2571;DHT22;1295;51.130;6.732;2023-03-12T12:21:48;6.70;99.90
2571;DHT22;1295;51.130;6.732;2023-03-12T12:27:12;6.30;99.90
2571;DHT22;1295;51.130;6.732;2023-03-12T12:30:13;6.50;99.90
2571;DHT22;1295;51.130;6.732;2023-03-12T12:33:54;6.50;99.90
2571;DHT22;1295;51.130;6.732;2023-03-12T12:35:32;6.50;99.90
2571;DHT22;1295;51.130;6.732;2023-03-12T12:38:21;6.60;99.90
2571;DHT22;1295;51.130;6.732;2023-03-12T12:40:46;6.50;99.90
2571;DHT22;1295;51.130;6.732;2023-03-12T12:43:14;6.80;99.90
2571;DHT22;1295;51.130;6.732;2023-03-12T12:45:36;6.80;99.90
2571;DHT22;1295;51.130;6.732;2023-03-12T12:48:02;7.20;99.90
2571;DHT22;1295;51.130;6.732;2023-03-12T12:50:28;6.90;99.90
2571;DHT22;1295;51.130;6.732;2023-03-12T12:52:56;8.10;99.90
2571;DHT22;1295;51.130;6.732;2023-03-12T12:55:20;7.10;99.90
2571;DHT22;1295;51.130;6.732;2023-03-12T12:57:46;6.80;99.90
2571;DHT22;1295;51.130;6.732;2023-03-12T13:00:36;7.00;99.90
2571;DHT22;1295;51.130;6.732;2023-03-12T13:03:02;7.10;99.90
2571;DHT22;1295;51.130;6.732;2023-03-12T13:05:55;7.00;99.90
2571;DHT22;1295;51.130;6.732;2023-03-12T13:08:35;7.50;99.90
2571;DHT22;1295;51.130;6.732;2023-03-12T13:11:02;7.70;99.90
2571;DHT22;1295;51.130;6.732;2023-03-12T13:13:27;7.40;99.90
2571;DHT22;1295;51.130;6.732;2023-03-12T13:16:14;7.50;99.90
2571;DHT22;1295;51.130;6.732;2023-03-12T13:18:27;7.10;99.90
2571;DHT22;1295;51.130;6.732;2023-03-12T13:23:54;7.00;99.90
2571;DHT22;1295;51.130;6.732;2023-03-12T13:26:30;7.70;99.90
2571;DHT22;1295;51.130;6.732;2023-03-12T13:28:56;7.20;99.90
2571;DHT22;1295;51.130;6.732;2023-03-12T13:31:37;7.30;99.90
2571;DHT22;1295;51.130;6.732;2023-03-12T13:37:01;8.00;99.90
2571;DHT22;1295;51.130;6.732;2023-03-12T13:39:28;8.00;99.90
2571;DHT22;1295;51.130;6.732;2023-03-12T13:41:54;7.70;99.90
2571;DHT22;1295;51.130;6.732;2023-03-12T13:44:37;8.10;99.90
2571;DHT22;1295;51.130;6.732;2023-03-12T13:47:20;8.30;99.90
2571;DHT22;1295;51.130;6.732;2023-03-12T13:50:03;7.80;99.90
2571;DHT22;1295;51.130;6.732;2023-03-12T13:55:24;8.00;99.90
2571;DHT22;1295;51.130;6.732;2023-03-12T13:57:49;8.00;99.90
2571;DHT22;1295;51.130;6.732;2023-03-12T14:00:24;8.00;99.90
2571;DHT22;1295;51.130;6.732;2023-03-12T14:02:50;8.30;99.90
2571;DHT22;1295;51.130;6.732;2023-03-12T14:05:14;8.90;99.90
2571;DHT22;1295;51.130;6.732;2023-03-12T14:08:02;8.90;99.90
2571;DHT22;1295;51.130;6.732;2023-03-12T14:10:39;8.10;99.90
2571;DHT22;1295;51.130;6.732;2023-03-12T14:13:07;8.00;99.90
2571;DHT22;1295;51.130;6.732;2023-03-12T14:15:41;8.30;99.90
2571;DHT22;1295;51.130;6.732;2023-03-12T14:18:09;8.20;99.90
2571;DHT22;1295;51.130;6.732;2023-03-12T14:20:30;8.10;99.90
2571;DHT22;1295;51.130;6.732;2023-03-12T14:22:59;8.30;99.90
2571;DHT22;1295;51.130;6.732;2023-03-12T14:25:32;8.10;99.90
2571;DHT22;1295;51.130;6.732;2023-03-12T14:27:56;8.10;99.90
2571;DHT22;1295;51.130;6.732;2023-03-12T14:30:23;8.20;99.90
2571;DHT22;1295;51.130;6.732;2023-03-12T14:32:48;8.20;99.90
2571;DHT22;1295;51.130;6.732;2023-03-12T14:35:19;8.30;99.90
2571;DHT22;1295;51.130;6.732;2023-03-12T14:37:47;8.20;99.90
2571;DHT22;1295;51.130;6.732;2023-03-12T14:40:45;8.50;99.90
2571;DHT22;1295;51.130;6.732;2023-03-12T14:42:51;8.50;99.90
2571;DHT22;1295;51.130;6.732;2023-03-12T14:45:18;8.40;99.90
2571;DHT22;1295;51.130;6.732;2023-03-12T14:47:44;8.20;99.90
2571;DHT22;1295;51.130;6.732;2023-03-12T14:50:16;8.20;99.90
2571;DHT22;1295;51.130;6.732;2023-03-12T14:52:41;8.00;99.90
2571;DHT22;1295;51.130;6.732;2023-03-12T14:55:11;8.70;99.90
2571;DHT22;1295;51.130;6.732;2023-03-12T14:57:33;8.60;99.90
2571;DHT22;1295;51.130;6.732;2023-03-12T15:00:06;8.50;99.90
2571;DHT22;1295;51.130;6.732;2023-03-12T15:02:32;8.50;99.90
2571;DHT22;1295;51.130;6.732;2023-03-12T15:04:59;8.60;99.90
2571;DHT22;1295;51.130;6.732;2023-03-12T15:07:28;8.80;99.90
2571;DHT22;1295;51.130;6.732;2023-03-12T15:09:53;8.80;99.90
2571;DHT22;1295;51.130;6.732;2023-03-12T15:12:21;8.80;99.90
2571;DHT22;1295;51.130;6.732;2023-03-12T15:14:46;8.80;99.90
2571;DHT22;1295;51.130;6.732;2023-03-12T15:17:17;8.80;99.90
2571;DHT22;1295;51.130;6.732;2023-03-12T15:19:42;9.00;99.90
2571;DHT22;1295;51.130;6.732;2023-03-12T15:22:12;8.90;99.90
2571;DHT22;1295;51.130;6.732;2023-03-12T15:24:37;8.90;99.90
2571;DHT22;1295;51.130;6.732;2023-03-12T15:29:40;8.60;99.90
2571;DHT22;1295;51.130;6.732;2023-03-12T15:32:05;8.80;99.90
2571;DHT22;1295;51.130;6.732;2023-03-12T15:34:35;8.70;99.90
2571;DHT22;1295;51.130;6.732;2023-03-12T15:37:01;8.90;99.90
2571;DHT22;1295;51.130;6.732;2023-03-12T15:39:32;8.90;99.90
2571;DHT22;1295;51.130;6.732;2023-03-12T15:41:59;9.10;99.90
2571;DHT22;1295;51.130;6.732;2023-03-12T15:44:22;9.10;99.90
2571;DHT22;1295;51.130;6.732;2023-03-12T15:46:48;8.80;99.90
2571;DHT22;1295;51.130;6.732;2023-03-12T15:49:18;9.00;99.90
2571;DHT22;1295;51.130;6.732;2023-03-12T15:51:39;8.90;99.90
2571;DHT22;1295;51.130;6.732;2023-03-12T15:56:49;9.10;99.90
2571;DHT22;1295;51.130;6.732;2023-03-12T15:59:24;9.20;99.90
2571;DHT22;1295;51.130;6.732;2023-03-12T16:01:50;9.10;99.90
2571;DHT22;1295;51.130;6.732;2023-03-12T16:04:15;9.30;99.90
2571;DHT22;1295;51.130;6.732;2023-03-12T16:06:40;9.20;99.90
2571;DHT22;1295;51.130;6.732;2023-03-12T16:09:06;9.30;99.90
2571;DHT22;1295;51.130;6.732;2023-03-12T16:11:32;9.30;99.90
2571;DHT22;1295;51.130;6.732;2023-03-12T16:14:01;9.00;99.90
2571;DHT22;1295;51.130;6.732;2023-03-12T16:16:23;9.00;99.90
2571;DHT22;1295;51.130;6.732;2023-03-12T16:18:48;9.10;99.90
2571;DHT22;1295;51.130;6.732;2023-03-12T16:21:14;9.00;99.90
2571;DHT22;1295;51.130;6.732;2023-03-12T16:23:40;9.10;99.90
2571;DHT22;1295;51.130;6.732;2023-03-12T16:26:05;9.40;99.90
2571;DHT22;1295;51.130;6.732;2023-03-12T16:28:32;9.20;99.90
2571;DHT22;1295;51.130;6.732;2023-03-12T16:30:56;9.10;99.90
2571;DHT22;1295;51.130;6.732;2023-03-12T16:33:22;9.20;99.90
2571;DHT22;1295;51.130;6.732;2023-03-12T16:35:48;9.30;99.90
2571;DHT22;1295;51.130;6.732;2023-03-12T16:38:13;9.00;99.90
2571;DHT22;1295;51.130;6.732;2023-03-12T16:40:41;9.00;99.90
2571;DHT22;1295;51.130;6.732;2023-03-12T16:43:06;9.30;99.90
2571;DHT22;1295;51.130;6.732;2023-03-12T16:45:30;9.20;99.90
2571;DHT22;1295;51.130;6.732;2023-03-12T16:47:57;9.10;99.90